createdAt,value
2022-09-28T00:00:21.583Z,100.00
2022-09-28T00:02:48.536Z,100.00
2022-09-28T00:05:15.507Z,100.00
2022-09-28T00:07:42.647Z,100.00
2022-09-28T00:10:10.229Z,100.00
2022-09-28T00:12:37.402Z,100.00
2022-09-28T00:15:06.711Z,100.00
2022-09-28T00:17:34.026Z,100.00
2022-09-28T00:20:01.363Z,100.00
2022-09-28T00:22:28.510Z,100.00
2022-09-28T00:24:55.529Z,100.00
2022-09-28T00:27:22.320Z,100.00
2022-09-28T00:29:49.033Z,100.00
2022-09-28T00:32:17.189Z,100.00
2022-09-28T00:34:48.922Z,100.00
2022-09-28T00:37:15.798Z,100.00
2022-09-28T00:39:43.517Z,100.00
2022-09-28T00:42:14.340Z,100.00
2022-09-28T00:44:48.133Z,100.00
2022-09-28T00:47:39.820Z,100.00
2022-09-28T00:50:11.746Z,100.00
2022-09-28T00:52:43.004Z,100.00
2022-09-28T00:55:14.087Z,100.00
2022-09-28T00:57:46.319Z,100.00
2022-09-28T01:00:14.064Z,100.00
2022-09-28T01:02:42.914Z,100.00
2022-09-28T01:05:11.252Z,100.00
2022-09-28T01:07:39.079Z,100.00
2022-09-28T01:10:06.439Z,100.00
2022-09-28T01:12:33.458Z,100.00
2022-09-28T01:15:01.940Z,100.00
2022-09-28T01:17:42.279Z,100.00
2022-09-28T01:20:43.253Z,100.00
2022-09-28T01:23:39.105Z,100.00
2022-09-28T01:26:40.165Z,100.00
2022-09-28T01:29:16.493Z,100.00
2022-09-28T01:31:48.890Z,100.00
2022-09-28T01:34:20.788Z,100.00
2022-09-28T01:36:50.873Z,100.00
2022-09-28T01:39:22.397Z,100.00
2022-09-28T01:41:53.285Z,100.00
2022-09-28T01:44:23.467Z,100.00
2022-09-28T01:46:52.435Z,100.00
2022-09-28T01:49:23.770Z,100.00
2022-09-28T01:51:55.854Z,100.00
2022-09-28T01:54:28.303Z,100.00
2022-09-28T01:57:02.316Z,100.00
2022-09-28T01:59:30.109Z,100.00
2022-09-28T02:02:00.717Z,100.00
2022-09-28T02:04:32.815Z,100.00
2022-09-28T02:07:05.385Z,100.00
2022-09-28T02:09:36.513Z,100.00
2022-09-28T02:12:10.797Z,100.00
2022-09-28T02:14:41.047Z,100.00
2022-09-28T02:17:09.773Z,100.00
2022-09-28T02:19:36.891Z,100.00
2022-09-28T02:22:14.941Z,100.00
2022-09-28T02:24:52.264Z,100.00
2022-09-28T02:27:30.013Z,100.00
2022-09-28T02:29:56.860Z,100.00
2022-09-28T02:32:26.154Z,100.00
2022-09-28T02:34:53.117Z,100.00
2022-09-28T02:37:19.964Z,100.00
2022-09-28T02:39:46.713Z,100.00
2022-09-28T02:42:21.689Z,100.00
2022-09-28T02:45:06.414Z,100.00
2022-09-28T02:47:46.507Z,100.00
2022-09-28T02:50:21.757Z,100.00
2022-09-28T02:53:19.100Z,100.00
2022-09-28T02:55:57.768Z,100.00
2022-09-28T02:58:38.132Z,100.00
2022-09-28T03:01:16.078Z,100.00
2022-09-28T03:03:48.687Z,100.00
2022-09-28T03:06:23.229Z,100.00
2022-09-28T03:08:55.995Z,100.00
2022-09-28T03:11:30.436Z,100.00
2022-09-28T03:13:59.592Z,100.00
2022-09-28T03:16:27.652Z,100.00
2022-09-28T03:18:54.540Z,100.00
2022-09-28T03:21:21.439Z,100.00
2022-09-28T03:23:48.161Z,100.00
2022-09-28T03:26:16.915Z,100.00
2022-09-28T03:28:43.843Z,100.00
2022-09-28T03:31:12.058Z,100.00
2022-09-28T03:33:38.929Z,100.00
2022-09-28T03:36:06.017Z,100.00
2022-09-28T03:38:32.893Z,100.00
2022-09-28T03:41:00.708Z,100.00
2022-09-28T03:43:28.265Z,100.00
2022-09-28T03:45:55.762Z,100.00
2022-09-28T03:48:30.018Z,100.00
2022-09-28T03:51:00.699Z,100.00
2022-09-28T03:53:29.594Z,100.00
2022-09-28T03:56:01.798Z,100.00
2022-09-28T03:58:28.741Z,100.00
2022-09-28T04:00:55.532Z,100.00
2022-09-28T04:03:22.343Z,100.00
2022-09-28T04:05:51.980Z,100.00
2022-09-28T04:08:19.323Z,100.00
2022-09-28T04:10:46.411Z,100.00
2022-09-28T04:13:13.640Z,100.00
2022-09-28T04:15:40.493Z,100.00
2022-09-28T04:18:10.913Z,100.00
2022-09-28T04:20:37.761Z,100.00
2022-09-28T04:23:05.935Z,100.00
2022-09-28T04:25:32.704Z,100.00
2022-09-28T04:28:17.980Z,100.00
2022-09-28T04:30:46.705Z,100.00
2022-09-28T04:33:13.489Z,100.00
2022-09-28T04:35:40.421Z,100.00
2022-09-28T04:38:08.535Z,100.00
2022-09-28T04:40:35.391Z,100.00
2022-09-28T04:43:02.134Z,100.00
2022-09-28T04:45:28.971Z,100.00
2022-09-28T04:47:55.833Z,100.00
2022-09-28T04:50:22.644Z,100.00
2022-09-28T04:52:49.421Z,100.00
2022-09-28T04:55:17.636Z,100.00
2022-09-28T04:57:44.409Z,100.00
2022-09-28T05:00:12.789Z,100.00
2022-09-28T05:02:39.698Z,100.00
2022-09-28T05:05:07.409Z,100.00
2022-09-28T05:07:34.152Z,100.00
2022-09-28T05:10:01.626Z,100.00
2022-09-28T05:12:29.726Z,100.00
2022-09-28T05:14:56.681Z,100.00
2022-09-28T05:17:23.677Z,100.00
2022-09-28T05:19:50.463Z,100.00
2022-09-28T05:22:17.292Z,100.00
2022-09-28T05:24:44.876Z,100.00
2022-09-28T05:27:11.757Z,100.00
2022-09-28T05:29:39.884Z,100.00
2022-09-28T05:32:06.953Z,100.00
2022-09-28T05:34:34.070Z,100.00
2022-09-28T05:37:00.982Z,100.00
2022-09-28T05:39:27.807Z,100.00
2022-09-28T05:41:55.780Z,100.00
2022-09-28T05:44:22.606Z,100.00
2022-09-28T05:46:52.661Z,100.00
2022-09-28T05:49:19.614Z,100.00
2022-09-28T05:51:46.388Z,100.00
2022-09-28T05:54:13.132Z,100.00
2022-09-28T05:56:39.870Z,100.00
2022-09-28T05:59:06.597Z,100.00
2022-09-28T06:01:33.547Z,100.00
2022-09-28T06:04:01.873Z,100.00
2022-09-28T06:06:28.665Z,100.00
2022-09-28T06:08:55.588Z,100.00
2022-09-28T06:11:23.824Z,100.00
2022-09-28T06:13:53.417Z,100.00
2022-09-28T06:16:20.726Z,100.00
2022-09-28T06:18:48.026Z,100.00
2022-09-28T06:21:16.131Z,100.00
2022-09-28T06:23:48.189Z,100.00
2022-09-28T06:26:16.587Z,100.00
2022-09-28T06:28:43.362Z,100.00
2022-09-28T06:31:10.433Z,100.00
2022-09-28T06:33:38.709Z,100.00
2022-09-28T06:36:05.811Z,100.00
2022-09-28T06:38:34.153Z,100.00
2022-09-28T06:41:01.101Z,100.00
2022-09-28T06:43:34.141Z,100.00
2022-09-28T06:46:02.278Z,100.00
2022-09-28T06:48:29.103Z,100.00
2022-09-28T06:50:55.879Z,100.00
2022-09-28T06:53:23.685Z,100.00
2022-09-28T06:55:51.917Z,100.00
2022-09-28T06:58:20.687Z,100.00
2022-09-28T07:00:48.870Z,100.00
2022-09-28T07:03:17.332Z,100.00
2022-09-28T07:05:45.752Z,100.00
2022-09-28T07:08:14.422Z,100.00
2022-09-28T07:10:42.827Z,100.00
2022-09-28T07:13:33.725Z,100.00
2022-09-28T07:16:00.469Z,100.00
2022-09-28T07:18:29.972Z,100.00
2022-09-28T07:20:57.485Z,100.00
2022-09-28T07:23:27.512Z,100.00
2022-09-28T07:25:54.685Z,100.00
2022-09-28T07:28:23.028Z,100.00
2022-09-28T07:30:49.951Z,100.00
2022-09-28T07:33:17.591Z,100.00
2022-09-28T07:35:50.777Z,100.00
2022-09-28T07:38:17.665Z,100.00
2022-09-28T07:41:03.217Z,100.00
2022-09-28T07:43:31.478Z,100.00
2022-09-28T07:45:58.523Z,100.00
2022-09-28T07:48:25.340Z,100.00
2022-09-28T07:50:54.231Z,100.00
2022-09-28T07:53:22.943Z,100.00
2022-09-28T07:55:54.107Z,100.00
2022-09-28T07:58:21.537Z,100.00
2022-09-28T08:00:50.574Z,100.00
2022-09-28T08:03:18.657Z,100.00
2022-09-28T08:05:46.872Z,100.00
2022-09-28T08:08:14.020Z,100.00
2022-09-28T08:10:46.292Z,100.00
2022-09-28T08:13:15.326Z,100.00
2022-09-28T08:15:42.712Z,100.00
2022-09-28T08:18:11.154Z,100.00
2022-09-28T08:20:56.852Z,100.00
2022-09-28T08:23:23.975Z,100.00
2022-09-28T08:25:55.376Z,100.00
2022-09-28T08:28:23.809Z,100.00
2022-09-28T08:30:51.434Z,100.00
2022-09-28T08:33:23.310Z,100.00
2022-09-28T08:35:57.568Z,100.00
2022-09-28T08:38:24.735Z,100.00
2022-09-28T08:41:06.175Z,100.00
2022-09-28T08:43:51.043Z,100.00
2022-09-28T08:46:23.895Z,100.00
2022-09-28T08:49:23.803Z,100.00
2022-09-28T08:51:51.318Z,100.00
2022-09-28T08:54:28.912Z,100.00
2022-09-28T08:56:59.508Z,100.00
2022-09-28T08:59:31.591Z,100.00
2022-09-28T09:02:01.276Z,100.00
2022-09-28T09:04:30.379Z,100.00
2022-09-28T09:07:21.352Z,100.00
2022-09-28T09:09:56.519Z,100.00
2022-09-28T09:12:36.793Z,96.83
2022-09-28T09:15:21.088Z,99.16
2022-09-28T09:18:07.735Z,98.89
2022-09-28T09:20:41.430Z,96.42
2022-09-28T09:23:15.540Z,93.92
2022-09-28T09:25:49.687Z,95.81
2022-09-28T09:28:45.149Z,92.24
2022-09-28T09:31:26.653Z,92.50
2022-09-28T09:34:11.631Z,88.25
2022-09-28T09:36:54.755Z,87.74
2022-09-28T09:39:37.360Z,89.37
2022-09-28T09:42:15.357Z,90.72
2022-09-28T09:45:03.063Z,89.07
2022-09-28T09:47:33.741Z,88.70
2022-09-28T09:50:08.385Z,88.49
2022-09-28T09:52:46.688Z,87.69
2022-09-28T09:55:18.981Z,86.64
2022-09-28T09:57:53.153Z,86.44
2022-09-28T10:00:20.283Z,82.19
2022-09-28T10:02:48.914Z,78.54
2022-09-28T10:05:21.275Z,77.88
2022-09-28T10:07:53.971Z,79.29
2022-09-28T10:10:26.222Z,76.29
2022-09-28T10:12:54.017Z,78.29
2022-09-28T10:15:24.674Z,79.90
2022-09-28T10:17:52.416Z,79.01
2022-09-28T10:20:20.097Z,79.51
2022-09-28T10:22:47.174Z,77.68
2022-09-28T10:25:15.755Z,79.98
2022-09-28T10:27:49.233Z,80.46
2022-09-28T10:30:19.066Z,79.99
2022-09-28T10:32:47.305Z,79.63
2022-09-28T10:35:22.595Z,79.74
2022-09-28T10:37:54.206Z,79.76
2022-09-28T10:40:31.723Z,80.52
2022-09-28T10:43:03.289Z,80.98
2022-09-28T10:45:35.395Z,80.09
2022-09-28T10:48:06.038Z,78.20
2022-09-28T10:50:34.405Z,76.87
2022-09-28T10:53:17.318Z,78.98
2022-09-28T10:55:57.462Z,78.62
2022-09-28T10:58:32.040Z,78.49
2022-09-28T11:01:02.862Z,79.37
2022-09-28T11:03:30.892Z,79.40
2022-09-28T11:06:00.799Z,77.29
2022-09-28T11:08:31.895Z,78.14
2022-09-28T11:11:05.963Z,76.31
2022-09-28T11:13:48.064Z,73.33
2022-09-28T11:16:24.834Z,71.97
2022-09-28T11:18:51.739Z,71.30
2022-09-28T11:21:22.788Z,70.08
2022-09-28T11:23:58.323Z,69.80
2022-09-28T11:26:26.950Z,69.68
2022-09-28T11:28:54.155Z,69.66
2022-09-28T11:31:27.350Z,72.58
2022-09-28T11:34:04.959Z,68.86
2022-09-28T11:36:45.956Z,70.59
2022-09-28T11:39:22.761Z,71.97
2022-09-28T11:42:01.420Z,71.80
2022-09-28T11:44:38.105Z,73.97
2022-09-28T11:47:26.908Z,73.81
2022-09-28T11:50:00.568Z,73.02
2022-09-28T11:52:34.421Z,73.05
2022-09-28T11:55:03.482Z,72.63
2022-09-28T11:57:37.867Z,73.99
2022-09-28T12:00:10.761Z,72.84
2022-09-28T12:02:43.004Z,73.34
2022-09-28T12:05:20.751Z,67.43
2022-09-28T12:07:53.186Z,68.45
2022-09-28T12:10:27.193Z,70.68
2022-09-28T12:13:01.350Z,69.33
2022-09-28T12:15:47.227Z,71.36
2022-09-28T12:18:28.702Z,70.90
2022-09-28T12:21:05.189Z,69.88
2022-09-28T12:23:35.893Z,69.91
2022-09-28T12:26:05.463Z,70.34
2022-09-28T12:28:39.195Z,71.30
2022-09-28T12:31:15.940Z,70.09
2022-09-28T12:33:48.114Z,71.47
2022-09-28T12:36:30.273Z,70.04
2022-09-28T12:39:24.047Z,68.21
2022-09-28T12:42:11.999Z,69.64
2022-09-28T12:44:59.737Z,66.38
2022-09-28T12:48:14.383Z,66.76
2022-09-28T12:50:57.236Z,66.99
2022-09-28T12:53:39.262Z,67.37
2022-09-28T12:56:12.016Z,68.53
2022-09-28T12:59:00.043Z,69.68
2022-09-28T13:02:01.532Z,68.50
2022-09-28T13:04:53.016Z,67.36
2022-09-28T13:07:29.707Z,68.61
2022-09-28T13:10:13.997Z,69.60
2022-09-28T13:12:52.998Z,69.95
2022-09-28T13:15:34.328Z,71.44
2022-09-28T13:18:10.995Z,71.13
2022-09-28T13:21:08.024Z,69.10
2022-09-28T13:23:38.566Z,66.35
2022-09-28T13:26:14.506Z,65.46
2022-09-28T13:28:43.167Z,64.97
2022-09-28T13:31:11.473Z,62.85
2022-09-28T13:33:43.968Z,62.35
2022-09-28T13:36:37.125Z,62.76
2022-09-28T13:39:04.424Z,62.03
2022-09-28T13:41:33.374Z,58.44
2022-09-28T13:44:24.399Z,60.76
2022-09-28T13:47:08.607Z,63.43
2022-09-28T13:52:12.491Z,63.70
2022-09-28T13:55:00.148Z,57.97
2022-09-28T13:57:37.278Z,60.71
2022-09-28T14:00:16.904Z,58.78
2022-09-28T14:02:47.849Z,59.95
2022-09-28T14:05:46.569Z,60.71
2022-09-28T14:08:30.116Z,60.96
2022-09-28T14:10:58.004Z,60.67
2022-09-28T14:13:59.996Z,61.60
2022-09-28T14:16:28.626Z,61.70
2022-09-28T14:18:57.910Z,63.55
2022-09-28T14:22:10.426Z,60.43
2022-09-28T14:24:58.510Z,60.98
2022-09-28T14:27:48.936Z,59.71
2022-09-28T14:30:22.475Z,62.77
2022-09-28T14:32:54.787Z,64.63
2022-09-28T14:35:31.252Z,67.17
2022-09-28T14:38:22.454Z,66.55
2022-09-28T14:41:09.427Z,68.18
2022-09-28T14:43:57.330Z,68.54
2022-09-28T14:46:32.768Z,69.93
2022-09-28T14:49:04.287Z,69.51
2022-09-28T14:52:05.207Z,69.05
2022-09-28T14:54:45.281Z,68.96
2022-09-28T14:57:19.489Z,70.27
2022-09-28T14:59:47.837Z,70.50
2022-09-28T15:02:24.740Z,70.31
2022-09-28T15:04:54.964Z,71.61
2022-09-28T15:07:27.123Z,68.78
2022-09-28T15:09:55.569Z,70.39
2022-09-28T15:12:26.609Z,68.37
2022-09-28T15:14:58.473Z,68.31
2022-09-28T15:17:28.526Z,69.14
2022-09-28T15:20:25.550Z,68.15
2022-09-28T15:22:57.284Z,68.37
2022-09-28T15:25:26.845Z,70.42
2022-09-28T15:27:57.057Z,72.86
2022-09-28T15:30:27.535Z,73.00
2022-09-28T15:32:56.851Z,74.74
2022-09-28T15:35:26.358Z,74.77
2022-09-28T15:37:55.036Z,75.52
2022-09-28T15:40:31.770Z,76.05
2022-09-28T15:43:00.299Z,76.59
2022-09-28T15:45:30.823Z,76.07
2022-09-28T15:48:19.113Z,77.08
2022-09-28T15:50:59.215Z,78.32
2022-09-28T15:53:26.957Z,78.13
2022-09-28T15:56:03.584Z,78.53
2022-09-28T15:58:31.695Z,78.77
2022-09-28T16:01:27.740Z,77.92
2022-09-28T16:03:55.159Z,77.95
2022-09-28T16:06:23.103Z,78.44
2022-09-28T16:08:49.922Z,79.82
2022-09-28T16:11:21.252Z,79.65
2022-09-28T16:13:58.011Z,80.95
2022-09-28T16:16:29.423Z,81.63
2022-09-28T16:18:58.745Z,81.11
2022-09-28T16:21:34.812Z,80.65
2022-09-28T16:24:01.738Z,80.43
2022-09-28T16:26:32.548Z,80.99
2022-09-28T16:29:05.899Z,81.63
2022-09-28T16:31:34.574Z,81.36
2022-09-28T16:34:11.711Z,78.69
2022-09-28T16:36:43.630Z,78.92
2022-09-28T16:39:11.928Z,79.78
2022-09-28T16:41:40.699Z,78.75
2022-09-28T16:44:24.448Z,78.09
2022-09-28T16:46:55.073Z,79.29
2022-09-28T16:49:23.840Z,79.08
2022-09-28T16:51:53.920Z,78.71
2022-09-28T16:54:41.001Z,80.10
2022-09-28T16:57:10.935Z,79.86
2022-09-28T16:59:39.100Z,80.38
2022-09-28T17:02:42.112Z,80.96
2022-09-28T17:05:06.962Z,82.05
2022-09-28T17:07:34.280Z,82.52
2022-09-28T17:10:01.106Z,84.26
2022-09-28T17:12:28.985Z,84.85
2022-09-28T17:14:57.644Z,84.26
2022-09-28T17:17:25.313Z,84.53
2022-09-28T17:19:52.106Z,86.36
2022-09-28T17:22:18.905Z,86.78
2022-09-28T17:24:46.188Z,87.14
2022-09-28T17:27:18.760Z,88.50
2022-09-28T17:29:45.587Z,89.26
2022-09-28T17:32:18.638Z,89.55
2022-09-28T17:34:55.958Z,90.70
2022-09-28T17:37:28.578Z,90.83
2022-09-28T17:39:55.389Z,99.25
2022-09-28T17:42:22.221Z,100.00
2022-09-28T17:44:49.082Z,100.00
2022-09-28T17:47:17.579Z,100.00
2022-09-28T17:49:46.092Z,100.00
2022-09-28T17:52:13.163Z,100.00
2022-09-28T17:54:39.972Z,100.00
2022-09-28T17:57:06.711Z,100.00
2022-09-28T17:59:33.514Z,100.00
2022-09-28T18:02:02.372Z,100.00
2022-09-28T18:04:50.864Z,100.00
2022-09-28T18:07:17.858Z,100.00
2022-09-28T18:09:44.658Z,100.00
2022-09-28T18:12:11.562Z,100.00
2022-09-28T18:14:39.915Z,100.00
2022-09-28T18:17:06.771Z,100.00
2022-09-28T18:19:34.913Z,100.00
2022-09-28T18:22:01.914Z,100.00
2022-09-28T18:24:28.863Z,100.00
2022-09-28T18:26:55.685Z,100.00
2022-09-28T18:29:22.461Z,100.00
2022-09-28T18:31:49.457Z,100.00
2022-09-28T18:34:16.448Z,100.00
2022-09-28T18:36:44.800Z,100.00
2022-09-28T18:39:11.706Z,100.00
2022-09-28T18:41:38.650Z,100.00
2022-09-28T18:44:05.511Z,100.00
2022-09-28T18:46:36.380Z,100.00
2022-09-28T18:49:03.866Z,100.00
2022-09-28T18:51:30.810Z,100.00
2022-09-28T18:54:00.556Z,100.00
2022-09-28T18:56:27.377Z,100.00
2022-09-28T18:58:54.326Z,100.00
2022-09-28T19:01:30.817Z,100.00
2022-09-28T19:03:59.179Z,100.00
2022-09-28T19:06:26.184Z,100.00
2022-09-28T19:08:55.705Z,100.00
2022-09-28T19:11:25.150Z,100.00
2022-09-28T19:13:53.541Z,100.00
2022-09-28T19:16:22.155Z,100.00
2022-09-28T19:18:50.112Z,100.00
2022-09-28T19:21:17.148Z,100.00
2022-09-28T19:23:48.896Z,100.00
2022-09-28T19:26:20.772Z,100.00
2022-09-28T19:28:49.346Z,100.00
2022-09-28T19:31:16.397Z,100.00
2022-09-28T19:33:46.435Z,100.00
2022-09-28T19:36:15.767Z,100.00
2022-09-28T19:38:42.657Z,100.00
2022-09-28T19:41:10.534Z,100.00
2022-09-28T19:43:38.313Z,100.00
2022-09-28T19:46:07.071Z,100.00
2022-09-28T19:48:34.628Z,100.00
2022-09-28T19:51:03.662Z,100.00
2022-09-28T19:53:32.429Z,100.00
2022-09-28T19:56:03.149Z,100.00
2022-09-28T19:58:32.407Z,100.00
2022-09-28T20:00:59.536Z,100.00
2022-09-28T20:03:28.336Z,100.00
2022-09-28T20:05:58.929Z,100.00
2022-09-28T20:08:26.280Z,100.00
2022-09-28T20:10:54.692Z,100.00
2022-09-28T20:13:22.069Z,100.00
2022-09-28T20:15:48.909Z,100.00
2022-09-28T20:18:16.016Z,100.00
2022-09-28T20:20:44.270Z,100.00
2022-09-28T20:23:11.804Z,100.00
2022-09-28T20:25:38.604Z,100.00
2022-09-28T20:28:05.567Z,100.00
2022-09-28T20:30:33.128Z,100.00
2022-09-28T20:33:00.155Z,100.00
2022-09-28T20:35:33.082Z,100.00
2022-09-28T20:38:08.076Z,100.00
2022-09-28T20:40:38.217Z,100.00
2022-09-28T20:43:06.591Z,100.00
2022-09-28T20:45:35.428Z,100.00
2022-09-28T20:48:06.451Z,100.00
2022-09-28T20:50:34.130Z,100.00
2022-09-28T20:53:02.368Z,100.00
2022-09-28T20:55:29.167Z,100.00
2022-09-28T20:57:55.907Z,100.00
2022-09-28T21:00:22.724Z,100.00
2022-09-28T21:02:53.110Z,100.00
2022-09-28T21:05:19.989Z,100.00
2022-09-28T21:07:46.841Z,100.00
2022-09-28T21:10:15.195Z,100.00
2022-09-28T21:12:42.026Z,100.00
2022-09-28T21:15:09.653Z,100.00
2022-09-28T21:17:36.458Z,100.00
2022-09-28T21:20:04.312Z,100.00
2022-09-28T21:22:31.080Z,100.00
2022-09-28T21:24:57.838Z,100.00
2022-09-28T21:27:26.035Z,100.00
2022-09-28T21:29:52.754Z,100.00
2022-09-28T21:32:19.594Z,100.00
2022-09-28T21:34:46.351Z,100.00
2022-09-28T21:37:13.113Z,100.00
2022-09-28T21:39:39.854Z,100.00
2022-09-28T21:42:06.780Z,100.00
2022-09-28T21:44:34.934Z,100.00
2022-09-28T21:47:01.736Z,100.00
2022-09-28T21:49:28.549Z,100.00
2022-09-28T21:51:55.469Z,100.00
2022-09-28T21:54:22.296Z,100.00
2022-09-28T21:56:49.003Z,100.00
2022-09-28T21:59:15.767Z,100.00
2022-09-28T22:01:44.301Z,100.00
2022-09-28T22:04:11.182Z,100.00
2022-09-28T22:06:37.966Z,100.00
2022-09-28T22:09:05.444Z,100.00
2022-09-28T22:11:32.247Z,100.00
2022-09-28T22:14:00.230Z,100.00
2022-09-28T22:16:29.547Z,100.00
2022-09-28T22:18:58.205Z,100.00
2022-09-28T22:21:27.156Z,100.00
2022-09-28T22:23:54.044Z,100.00
2022-09-28T22:26:23.482Z,100.00
2022-09-28T22:28:52.002Z,100.00
2022-09-28T22:31:22.126Z,100.00
2022-09-28T22:33:49.212Z,100.00
2022-09-28T22:36:17.436Z,100.00
2022-09-28T22:38:44.878Z,100.00
2022-09-28T22:41:12.580Z,100.00
2022-09-28T22:43:39.295Z,100.00
2022-09-28T22:46:08.575Z,100.00
2022-09-28T22:48:35.816Z,100.00
2022-09-28T22:51:04.054Z,100.00
2022-09-28T22:53:32.913Z,100.00
2022-09-28T22:56:01.625Z,100.00
2022-09-28T22:58:28.337Z,100.00
2022-09-28T23:00:57.878Z,100.00
2022-09-28T23:03:24.736Z,100.00
2022-09-28T23:05:54.882Z,100.00
2022-09-28T23:08:22.929Z,100.00
2022-09-28T23:10:51.719Z,100.00
2022-09-28T23:13:18.545Z,100.00
2022-09-28T23:15:55.034Z,100.00
2022-09-28T23:18:21.898Z,100.00
2022-09-28T23:20:53.155Z,100.00
2022-09-28T23:23:19.910Z,100.00
2022-09-28T23:25:46.712Z,100.00
2022-09-28T23:28:15.167Z,100.00
2022-09-28T23:30:41.943Z,100.00
2022-09-28T23:33:11.877Z,100.00
2022-09-28T23:35:38.703Z,100.00
2022-09-28T23:38:05.498Z,100.00
2022-09-28T23:40:32.342Z,100.00
2022-09-28T23:42:59.110Z,100.00
2022-09-28T23:45:27.389Z,100.00
2022-09-28T23:47:54.644Z,100.00
2022-09-28T23:50:21.437Z,100.00
2022-09-28T23:52:51.825Z,100.00
2022-09-28T23:55:19.157Z,100.00
2022-09-28T23:57:46.313Z,100.00
